Time;durP1;ratioP1;P1;durP2;ratioP2;P2;SDS_P1;SDS_P2;PMS_P1;PMS_P2;Temp;Humidity;BMP_temperature;BMP_pressure;BME280_temperature;BME280_humidity;BME280_pressure;Samples;Min_cycle;Max_cycle;Signal;HPM_P1;HPM_P2
2022/03/10 00:00:38;;;;;;;;;39.50;35.50;;;;;3.39;78.48;99857.81;4951561;28;9614;-80
2022/03/10 00:03:17;;;;;;;;;40.25;39.50;;;;;3.66;78.14;99862.97;4937886;28;8863;-79
2022/03/10 00:05:47;;;;;;;;;45.00;39.75;;;;;3.89;77.31;99866.31;4968709;28;8891;-78
2022/03/10 00:08:15;;;;;;;;;50.00;45.75;;;;;4.12;76.61;99868.72;4993265;28;8892;-85
2022/03/10 00:10:45;;;;;;;;;57.75;43.25;;;;;4.30;75.68;99864.09;4990291;28;8975;-81
2022/03/10 00:13:14;;;;;;;;;46.50;41.00;;;;;4.47;75.10;99846.53;4957173;28;8845;-79
2022/03/10 00:15:43;;;;;;;;;54.25;44.50;;;;;4.63;74.24;99859.88;4957870;28;9015;-82
2022/03/10 00:18:12;;;;;;;;;47.25;43.75;;;;;4.63;73.50;99863.34;4972970;28;8883;-80
2022/03/10 00:20:45;;;;;;;;;47.00;43.00;;;;;4.68;72.92;99848.81;4987307;28;9610;-80
2022/03/10 00:23:14;;;;;;;;;47.50;38.50;;;;;4.75;72.86;99849.88;4967734;28;8859;-82
2022/03/10 00:25:45;;;;;;;;;47.00;40.50;;;;;4.74;73.00;99848.13;4967836;28;8893;-81
2022/03/10 00:28:14;;;;;;;;;34.75;33.00;;;;;4.82;72.80;99849.22;4967520;28;8971;-81
2022/03/10 00:30:42;;;;;;;;;37.25;35.50;;;;;4.48;72.71;99853.44;4967750;28;8862;-80
2022/03/10 00:33:11;;;;;;;;;38.50;32.75;;;;;3.90;75.25;99854.28;4951461;28;8866;-80
2022/03/10 00:35:40;;;;;;;;;32.50;27.50;;;;;3.24;78.92;99855.59;4967488;28;8870;-80
2022/03/10 00:38:10;;;;;;;;;37.00;28.75;;;;;2.96;81.08;99853.75;4951131;28;8855;-80
2022/03/10 00:40:38;;;;;;;;;33.25;31.00;;;;;2.66;82.74;99848.41;4951021;28;8858;-80
2022/03/10 00:43:11;;;;;;;;;36.00;33.75;;;;;2.28;85.01;99846.16;4986037;28;8876;-80
2022/03/10 00:45:40;;;;;;;;;32.25;28.00;;;;;2.02;87.19;99849.44;4971779;28;8863;-80
2022/03/10 00:48:10;;;;;;;;;32.75;29.25;;;;;2.01;87.62;99851.16;4954218;28;8868;-78
2022/03/10 00:50:38;;;;;;;;;30.25;27.25;;;;;2.06;87.62;99851.31;4970075;28;8881;-78
2022/03/10 00:53:07;;;;;;;;;29.75;27.25;;;;;2.20;87.48;99841.56;4954153;28;8857;-78
2022/03/10 00:55:38;;;;;;;;;40.00;33.25;;;;;2.42;86.33;99833.84;4987576;28;8872;-78
2022/03/10 00:58:08;;;;;;;;;44.33;36.00;;;;;2.80;85.12;99818.88;4928755;28;1247484;-80
2022/03/10 01:00:37;;;;;;;;;27.25;26.00;;;;;2.68;83.85;99813.28;4988498;28;8869;-78
2022/03/10 01:03:08;;;;;;;;;35.75;27.50;;;;;2.37;85.38;99814.75;4987826;28;8876;-80
2022/03/10 01:05:37;;;;;;;;;34.50;28.75;;;;;1.97;87.72;99831.28;4988466;28;8876;-78
2022/03/10 01:08:06;;;;;;;;;27.75;25.00;;;;;1.89;89.05;99830.09;4972177;28;8869;-78
2022/03/10 01:10:38;;;;;;;;;34.75;30.75;;;;;2.06;88.57;99823.03;4988252;28;8844;-79
2022/03/10 01:13:13;;;;;;;;;26.75;24.75;;;;;1.96;88.58;99826.94;4987798;28;8873;-81
2022/03/10 01:15:45;;;;;;;;;38.50;31.00;;;;;2.07;88.71;99822.22;4988238;28;9662;-77
2022/03/10 01:18:15;;;;;;;;;39.50;33.75;;;;;2.25;87.93;99828.06;4972093;28;8966;-80
2022/03/10 01:20:44;;;;;;;;;29.25;26.25;;;;;2.29;87.38;99824.78;4973008;28;8853;-79
2022/03/10 01:23:16;;;;;;;;;31.50;31.00;;;;;2.72;86.15;99823.75;4989329;28;9022;-81
2022/03/10 01:25:51;;;;;;;;;35.25;29.25;;;;;2.62;85.51;99819.09;4957626;28;8849;-82
2022/03/10 01:28:19;;;;;;;;;31.25;28.00;;;;;2.58;85.99;99822.38;4991702;28;8879;-80
2022/03/10 01:30:49;;;;;;;;;30.25;22.75;;;;;2.54;86.35;99823.97;4971163;28;8886;-81
2022/03/10 01:33:18;;;;;;;;;35.75;33.25;;;;;2.47;86.30;99823.69;4976001;28;8946;-79
2022/03/10 01:35:47;;;;;;;;;36.75;31.75;;;;;2.26;87.99;99827.22;4932618;28;8969;-80
2022/03/10 01:38:18;;;;;;;;;38.25;35.75;;;;;2.11;89.42;99832.66;4971008;28;8879;-79
2022/03/10 01:40:46;;;;;;;;;29.25;27.25;;;;;1.99;90.17;99841.63;4971003;28;8868;-82
2022/03/10 01:43:17;;;;;;;;;37.00;33.50;;;;;1.85;91.75;99834.25;4970918;28;9763;-80
2022/03/10 01:45:46;;;;;;;;;38.50;33.50;;;;;1.76;92.19;99841.63;4954877;28;8975;-81
2022/03/10 01:48:15;;;;;;;;;30.00;28.25;;;;;1.81;92.41;99834.94;4939127;28;8883;-80
2022/03/10 01:50:44;;;;;;;;;34.00;32.00;;;;;2.02;91.98;99828.88;4939336;28;8966;-81
2022/03/10 01:53:13;;;;;;;;;41.75;35.50;;;;;2.46;90.65;99837.41;4964898;28;8837;-79
2022/03/10 01:55:47;;;;;;;;;35.00;31.25;;;;;2.66;88.20;99838.09;4978552;28;8868;-79
2022/03/10 01:58:18;;;;;;;;;38.75;35.50;;;;;2.93;86.83;99831.34;4954660;28;8852;-79
2022/03/10 02:00:47;;;;;;;;;31.75;29.00;;;;;3.25;85.56;99839.31;4938484;28;9755;-80
2022/03/10 02:03:16;;;;;;;;;26.50;26.00;;;;;3.50;83.97;99829.81;4989788;28;8879;-79
2022/03/10 02:05:46;;;;;;;;;26.75;25.25;;;;;3.74;83.20;99823.66;4957781;28;8975;-80
2022/03/10 02:11:01;;;;;;;;;29.50;29.25;;;;;4.08;80.30;99828.16;4979137;28;8946;-81
2022/03/10 02:13:32;;;;;;;;;27.50;24.25;;;;;4.11;78.63;99825.66;4978591;28;8868;-80
2022/03/10 02:18:47;;;;;;;;;36.00;27.50;;;;;4.44;78.22;99827.47;4986944;28;8875;-79
2022/03/10 02:21:17;;;;;;;;;37.25;27.75;;;;;4.27;77.36;99830.47;4957773;28;9618;-81
2022/03/10 02:23:47;;;;;;;;;29.25;25.25;;;;;3.99;78.49;99843.34;4942098;28;9829;-80
2022/03/10 02:26:17;;;;;;;;;29.75;27.25;;;;;4.04;78.46;99839.22;4990369;28;8905;-80
2022/03/10 02:28:46;;;;;;;;;28.25;26.75;;;;;4.17;78.32;99832.72;4973602;28;8883;-81
2022/03/10 02:31:15;;;;;;;;;31.00;25.50;;;;;4.22;77.92;99828.59;4989457;28;8876;-80
2022/03/10 02:33:44;;;;;;;;;27.00;23.25;;;;;4.05;77.69;99835.81;4938316;28;8851;-80
2022/03/10 02:36:14;;;;;;;;;29.50;27.50;;;;;4.10;77.74;99839.38;4971215;28;8863;-80
2022/03/10 02:38:43;;;;;;;;;27.75;25.25;;;;;4.16;77.12;99844.75;4980424;28;8949;-80
2022/03/10 02:41:13;;;;;;;;;26.00;23.00;;;;;4.28;76.92;99839.06;4990871;28;10034;-82
2022/03/10 02:43:42;;;;;;;;;29.50;27.25;;;;;4.36;76.86;99845.31;4974300;28;8872;-80
2022/03/10 02:46:11;;;;;;;;;29.50;22.50;;;;;4.45;76.04;99852.47;4990771;28;8901;-80
2022/03/10 02:48:39;;;;;;;;;31.25;27.00;;;;;4.48;75.83;99850.00;4991716;28;9666;-79
2022/03/10 02:51:09;;;;;;;;;26.50;24.50;;;;;4.57;75.44;99845.06;4990457;28;8872;-81
2022/03/10 02:53:37;;;;;;;;;27.25;25.75;;;;;4.71;74.71;99836.81;4974455;28;8865;-81
2022/03/10 02:56:07;;;;;;;;;27.50;24.50;;;;;4.73;74.30;99841.22;4974504;28;8860;-81
2022/03/10 02:58:37;;;;;;;;;25.75;24.50;;;;;4.65;74.58;99850.44;4974253;28;8852;-80
2022/03/10 03:01:07;;;;;;;;;25.75;24.50;;;;;4.49;74.62;99854.31;4990415;28;8894;-84
2022/03/10 03:03:38;;;;;;;;;23.00;22.50;;;;;4.43;75.10;99852.44;4974647;28;8865;-80
2022/03/10 03:06:07;;;;;;;;;32.25;27.75;;;;;4.53;75.04;99852.69;4974057;28;8869;-82
2022/03/10 03:08:36;;;;;;;;;28.25;28.25;;;;;4.53;74.69;99852.69;4974021;28;8893;-79
2022/03/10 03:11:05;;;;;;;;;28.00;26.25;;;;;4.60;74.62;99854.63;4974145;28;8987;-79
2022/03/10 03:13:33;;;;;;;;;21.25;21.25;;;;;4.50;74.97;99850.91;4957366;28;8946;-81
2022/03/10 03:16:05;;;;;;;;;29.00;27.25;;;;;4.51;75.18;99842.31;4989950;28;8909;-81
2022/03/10 03:18:34;;;;;;;;;37.00;31.00;;;;;4.63;74.77;99846.94;4973636;28;8869;-80
2022/03/10 03:21:02;;;;;;;;;35.25;29.75;;;;;4.68;74.62;99860.88;5006121;28;8864;-81
2022/03/10 03:23:31;;;;;;;;;28.00;27.50;;;;;4.57;74.66;99870.03;4990052;28;8840;-80
2022/03/10 03:26:00;;;;;;;;;34.25;31.50;;;;;4.49;74.88;99860.34;4989729;28;8876;-82
2022/03/10 03:28:29;;;;;;;;;32.25;27.75;;;;;4.44;75.35;99850.72;4990031;28;8946;-80
2022/03/10 03:30:58;;;;;;;;;34.75;28.00;;;;;4.39;75.03;99854.88;4973931;28;8849;-83
2022/03/10 03:33:28;;;;;;;;;43.25;35.25;;;;;4.19;75.61;99857.72;4989308;28;8853;-82
2022/03/10 03:35:57;;;;;;;;;18.75;17.50;;;;;4.23;75.96;99861.28;4989486;28;8895;-79
2022/03/10 03:38:26;;;;;;;;;47.50;39.75;;;;;4.18;76.09;99862.84;4973692;28;8940;-81
2022/03/10 03:40:55;;;;;;;;;33.25;32.00;;;;;4.35;75.60;99861.66;4973352;28;9006;-81
2022/03/10 03:43:24;;;;;;;;;39.25;36.75;;;;;4.38;75.81;99861.75;5007189;28;8900;-82
2022/03/10 03:45:55;;;;;;;;;38.50;35.00;;;;;4.38;75.38;99854.00;4975038;28;8860;-80
2022/03/10 03:48:26;;;;;;;;;38.25;36.75;;;;;4.55;74.90;99859.66;4988402;28;9649;-80
2022/03/10 03:50:57;;;;;;;;;38.50;36.50;;;;;4.58;74.94;99851.13;4969921;28;8926;-78
2022/03/10 03:53:26;;;;;;;;;33.50;28.50;;;;;4.53;74.38;99847.53;4921952;28;8909;-80
2022/03/10 03:55:54;;;;;;;;;37.75;33.75;;;;;4.45;75.43;99862.81;4970096;28;8975;-80
2022/03/10 03:58:23;;;;;;;;;35.25;31.75;;;;;4.45;74.85;99855.06;4953992;28;8835;-82
2022/03/10 04:00:52;;;;;;;;;40.00;35.25;;;;;4.57;74.81;99859.69;4937406;28;8891;-82
2022/03/10 04:03:21;;;;;;;;;32.50;30.25;;;;;4.72;74.35;99867.00;4990280;28;9003;-81
2022/03/10 04:05:51;;;;;;;;;26.75;21.50;;;;;4.82;74.16;99871.59;4990070;28;8868;-83
2022/03/10 04:08:21;;;;;;;;;35.75;31.50;;;;;4.75;73.91;99882.59;4979489;28;8852;-80
2022/03/10 04:10:51;;;;;;;;;32.75;30.25;;;;;4.49;74.65;99885.31;4978650;28;8873;-79
2022/03/10 04:13:21;;;;;;;;;37.50;34.25;;;;;4.41;75.19;99894.53;4988949;28;8865;-81
2022/03/10 04:15:51;;;;;;;;;39.00;33.50;;;;;4.41;75.40;99900.56;4988615;28;9601;-82
2022/03/10 04:18:20;;;;;;;;;35.25;32.25;;;;;4.17;75.75;99898.09;4991893;28;8849;-79
2022/03/10 04:20:50;;;;;;;;;27.50;27.50;;;;;4.20;75.88;99900.81;4989791;28;8896;-80
2022/03/10 04:23:21;;;;;;;;;48.75;43.25;;;;;4.29;75.51;99897.59;4990279;28;8857;-81
2022/03/10 04:25:51;;;;;;;;;33.75;28.75;;;;;4.10;76.47;99911.66;4990300;28;8887;-82
2022/03/10 04:28:20;;;;;;;;;35.00;31.00;;;;;3.92;76.79;99904.22;4962584;28;8950;-79
2022/03/10 04:30:50;;;;;;;;;33.25;27.75;;;;;3.85;77.60;99913.44;4993973;28;9555;-80
2022/03/10 04:33:19;;;;;;;;;32.25;31.75;;;;;3.75;77.82;99900.22;4988917;28;8988;-81
2022/03/10 04:35:50;;;;;;;;;38.50;34.50;;;;;3.70;78.13;99911.28;4990487;28;9639;-80
2022/03/10 04:38:21;;;;;;;;;38.50;27.50;;;;;3.74;78.29;99917.38;4972692;28;8857;-81
2022/03/10 04:40:50;;;;;;;;;33.75;33.50;;;;;3.76;78.04;99922.59;4989841;28;8883;-79
2022/03/10 04:43:18;;;;;;;;;30.75;29.25;;;;;3.88;77.93;99923.88;4972827;28;8877;-81
2022/03/10 04:45:47;;;;;;;;;38.75;34.75;;;;;3.65;78.43;99928.28;4996543;28;8978;-78
2022/03/10 04:48:16;;;;;;;;;36.00;35.75;;;;;3.67;78.47;99928.34;4977100;28;8955;-80
2022/03/10 04:50:45;;;;;;;;;27.75;25.75;;;;;3.86;78.08;99933.28;4990652;28;8864;-81
2022/03/10 04:53:14;;;;;;;;;50.25;42.00;;;;;4.04;77.19;99922.66;4990068;28;8879;-81
2022/03/10 04:55:44;;;;;;;;;35.00;31.00;;;;;4.08;76.95;99924.53;4971790;28;8980;-80
2022/03/10 04:58:12;;;;;;;;;35.00;32.25;;;;;4.06;76.69;99931.34;4990248;28;8878;-82
2022/03/10 05:00:42;;;;;;;;;31.25;30.00;;;;;4.06;76.90;99928.75;4976382;28;8858;-81
2022/03/10 05:03:11;;;;;;;;;39.50;35.25;;;;;4.08;77.12;99939.09;5011995;28;8863;-83
2022/03/10 05:05:40;;;;;;;;;43.50;36.00;;;;;4.12;76.73;99942.66;4979279;28;8965;-81
2022/03/10 05:08:08;;;;;;;;;34.25;28.25;;;;;4.03;76.99;99944.13;4963387;28;8850;-80
2022/03/10 05:10:37;;;;;;;;;42.00;37.50;;;;;4.12;76.94;99946.16;4995940;28;8993;-82
2022/03/10 05:13:07;;;;;;;;;44.25;40.50;;;;;4.24;76.64;99943.94;4995446;28;9091;-81
2022/03/10 05:15:36;;;;;;;;;52.25;46.75;;;;;4.30;76.38;99951.00;4994908;28;8917;-79
2022/03/10 05:18:06;;;;;;;;;47.25;41.75;;;;;4.12;76.53;99946.16;4994414;28;8903;-80
2022/03/10 05:20:36;;;;;;;;;39.00;38.00;;;;;4.28;76.23;99945.78;5011021;28;8912;-81
2022/03/10 05:23:06;;;;;;;;;45.00;39.00;;;;;4.01;77.10;99947.50;4978308;28;8949;-81
2022/03/10 05:25:39;;;;;;;;;49.75;39.50;;;;;4.00;76.83;99961.22;4978843;28;9059;-79
2022/03/10 05:28:13;;;;;;;;;34.00;31.50;;;;;4.03;76.78;99958.75;5006614;28;8832;-80
2022/03/10 05:30:43;;;;;;;;;54.75;45.25;;;;;4.21;76.92;99951.56;4992238;28;8876;-80
2022/03/10 05:33:13;;;;;;;;;44.50;39.75;;;;;4.18;76.49;99959.25;4975854;28;8868;-80
2022/03/10 05:35:42;;;;;;;;;45.25;41.00;;;;;4.25;76.21;99956.03;4975297;28;8857;-79
2022/03/10 05:38:11;;;;;;;;;64.25;53.50;;;;;4.33;76.27;99961.44;4992975;28;8864;-81
2022/03/10 05:40:42;;;;;;;;;52.50;43.25;;;;;4.30;75.58;99966.50;4975809;28;8861;-80
2022/03/10 05:43:13;;;;;;;;;59.75;46.75;;;;;4.18;76.45;99954.09;4993108;28;8979;-81
2022/03/10 05:45:43;;;;;;;;;58.00;48.50;;;;;4.20;76.63;99961.88;4991471;28;8857;-79
2022/03/10 05:48:12;;;;;;;;;42.50;39.25;;;;;4.25;76.35;99955.13;4991784;28;8841;-80
2022/03/10 05:50:42;;;;;;;;;55.75;44.75;;;;;4.36;75.83;99948.59;4975697;28;8919;-81
2022/03/10 05:53:11;;;;;;;;;56.25;46.50;;;;;4.36;75.12;99964.09;4961047;28;9003;-80
2022/03/10 05:55:41;;;;;;;;;46.50;43.50;;;;;4.27;75.34;99968.97;4972169;28;8863;-83
2022/03/10 05:58:09;;;;;;;;;53.25;46.00;;;;;4.15;76.06;99976.34;4972196;28;8967;-81
2022/03/10 06:00:45;;;;;;;;;43.00;36.50;;;;;4.24;75.84;99974.03;4975159;28;9618;-82
2022/03/10 06:03:14;;;;;;;;;45.75;40.00;;;;;4.27;75.06;99989.59;4991191;28;8872;-82
2022/03/10 06:05:43;;;;;;;;;48.75;42.25;;;;;4.34;75.11;99988.13;5008052;28;8881;-82
2022/03/10 06:08:12;;;;;;;;;52.75;45.25;;;;;4.16;75.14;99994.44;5013139;28;8930;-80
2022/03/10 06:10:41;;;;;;;;;62.50;49.50;;;;;3.90;76.06;100002.19;4982538;28;8998;-80
2022/03/10 06:13:10;;;;;;;;;51.00;43.00;;;;;3.97;75.92;100012.72;4989761;28;8891;-84
2022/03/10 06:15:39;;;;;;;;;58.25;45.00;;;;;4.07;75.50;100010.50;4974716;28;9069;-76
2022/03/10 06:18:09;;;;;;;;;52.75;46.75;;;;;4.02;75.28;100012.03;4990239;28;8857;-73
2022/03/10 06:20:38;;;;;;;;;50.75;43.50;;;;;3.82;75.49;100021.72;4986193;28;8969;-76
2022/03/10 06:23:09;;;;;;;;;47.75;42.75;;;;;3.67;76.18;100023.75;4970340;28;8933;-75
2022/03/10 06:25:38;;;;;;;;;44.25;40.50;;;;;3.54;75.72;100031.91;4986777;28;8937;-77
2022/03/10 06:28:10;;;;;;;;;47.50;43.50;;;;;3.42;76.20;100037.47;4973145;28;9054;-76
2022/03/10 06:30:38;;;;;;;;;41.25;33.25;;;;;3.51;75.40;100033.50;4968117;28;8855;-76
2022/03/10 06:33:07;;;;;;;;;42.00;36.50;;;;;3.54;75.07;100043.06;4917293;28;8865;-75
2022/03/10 06:35:37;;;;;;;;;41.75;40.75;;;;;3.39;74.93;100040.81;4933889;28;9052;-76
2022/03/10 06:38:05;;;;;;;;;39.00;36.50;;;;;3.49;74.19;100052.34;4931293;28;9142;-76
2022/03/10 06:40:34;;;;;;;;;26.50;24.75;;;;;3.37;72.81;100027.00;4905421;28;8938;-75
2022/03/10 06:43:03;;;;;;;;;36.75;32.75;;;;;3.24;72.53;100058.31;4968742;28;9022;-76
2022/03/10 06:45:32;;;;;;;;;44.50;34.50;;;;;3.07;70.87;100050.81;4954411;28;9068;-76
2022/03/10 06:48:00;;;;;;;;;33.00;30.00;;;;;3.06;70.22;100061.97;4956570;28;8861;-76
2022/03/10 06:50:29;;;;;;;;;31.25;25.75;;;;;3.19;69.28;100070.13;4968516;28;8879;-74
2022/03/10 06:52:59;;;;;;;;;30.50;26.75;;;;;3.34;67.51;100055.22;4955163;28;9907;-76
2022/03/10 06:55:28;;;;;;;;;35.50;27.25;;;;;3.32;66.86;100068.06;4949530;28;8980;-79
2022/03/10 06:57:57;;;;;;;;;23.00;17.75;;;;;3.46;67.36;100076.31;4950712;28;8866;-75
2022/03/10 07:00:25;;;;;;;;;38.00;33.25;;;;;3.57;67.20;100073.25;4968410;28;9014;-75
2022/03/10 07:02:54;;;;;;;;;31.75;29.25;;;;;3.48;65.75;100073.81;4988705;28;8865;-78
2022/03/10 07:05:23;;;;;;;;;22.25;21.25;;;;;3.30;65.27;100064.53;4989898;28;8848;-76
2022/03/10 07:07:52;;;;;;;;;27.75;24.00;;;;;3.21;65.10;100073.66;4991420;28;8868;-77
2022/03/10 07:10:25;;;;;;;;;30.00;27.00;;;;;3.35;65.58;100080.19;4987873;28;8968;-79
2022/03/10 07:12:54;;;;;;;;;35.25;29.25;;;;;3.29;64.83;100082.56;4939380;28;8879;-78
2022/03/10 07:15:23;;;;;;;;;34.00;26.25;;;;;3.55;64.09;100075.75;4985646;28;8872;-78
2022/03/10 07:17:53;;;;;;;;;30.75;29.00;;;;;3.77;63.64;100082.56;4990605;28;8861;-75
2022/03/10 07:20:22;;;;;;;;;33.50;27.00;;;;;4.09;63.33;100081.09;4990750;28;8993;-74
2022/03/10 07:22:51;;;;;;;;;28.75;28.75;;;;;4.13;62.92;100083.81;4992628;28;8986;-75
2022/03/10 07:25:20;;;;;;;;;39.25;35.25;;;;;4.13;62.77;100083.81;4972738;28;8856;-76
2022/03/10 07:27:50;;;;;;;;;34.00;34.00;;;;;4.15;61.40;100079.56;4988906;28;8857;-75
2022/03/10 07:30:18;;;;;;;;;26.50;23.25;;;;;3.90;59.37;100082.19;4989766;28;8980;-77
2022/03/10 07:32:47;;;;;;;;;35.25;32.75;;;;;3.86;58.40;100080.31;4986965;28;8954;-78
2022/03/10 07:35:16;;;;;;;;;30.25;30.25;;;;;4.00;59.41;100087.66;5004736;28;8906;-78
2022/03/10 07:37:46;;;;;;;;;32.75;30.50;;;;;4.24;59.31;100082.47;4972395;28;8873;-75
2022/03/10 07:40:15;;;;;;;;;28.25;25.75;;;;;4.19;58.75;100086.59;4989243;28;8889;-75
2022/03/10 07:42:44;;;;;;;;;33.75;33.50;;;;;4.18;59.09;100090.88;4952116;28;8946;-79
2022/03/10 07:45:14;;;;;;;;;28.75;27.25;;;;;4.12;57.43;100098.41;4956171;28;8881;-76
2022/03/10 07:47:46;;;;;;;;;27.50;26.00;;;;;4.32;57.55;100090.47;5005046;28;8983;-77
2022/03/10 07:50:15;;;;;;;;;31.50;29.00;;;;;4.59;58.66;100088.75;4988935;28;8892;-74
2022/03/10 07:52:44;;;;;;;;;31.75;22.50;;;;;4.75;59.55;100094.44;4989608;28;8932;-74
2022/03/10 07:55:13;;;;;;;;;19.50;17.00;;;;;4.83;56.15;100101.59;4990741;28;8864;-78
2022/03/10 07:57:42;;;;;;;;;18.00;18.00;;;;;4.84;54.98;100098.19;4972148;28;8877;-75
2022/03/10 08:00:12;;;;;;;;;28.25;26.00;;;;;4.77;54.13;100096.25;4920169;28;8914;-77
2022/03/10 08:02:42;;;;;;;;;29.00;25.50;;;;;5.06;54.13;100101.44;4938190;28;8883;-76
2022/03/10 08:05:11;;;;;;;;;30.25;27.75;;;;;5.03;53.20;100091.00;4951560;28;8887;-75
2022/03/10 08:07:39;;;;;;;;;34.00;24.25;;;;;5.09;53.49;100091.19;4967589;28;8852;-75
2022/03/10 08:10:10;;;;;;;;;31.00;27.00;;;;;5.08;52.90;100100.66;4934919;28;8898;-72
2022/03/10 08:12:38;;;;;;;;;25.75;23.25;;;;;5.13;52.81;100089.59;4966781;28;8971;-74
2022/03/10 08:15:10;;;;;;;;;27.80;27.20;;;;;5.26;54.01;100092.56;4966919;28;8891;-73
2022/03/10 08:17:39;;;;;;;;;36.50;31.00;;;;;5.24;54.44;100088.19;4918448;28;8856;-76
2022/03/10 08:20:10;;;;;;;;;37.00;33.50;;;;;5.25;54.22;100098.59;4934238;28;8982;-72
2022/03/10 08:22:39;;;;;;;;;30.75;28.50;;;;;5.39;53.17;100098.13;4931667;28;8874;-72
2022/03/10 08:25:08;;;;;;;;;27.00;24.00;;;;;5.30;51.76;100100.44;4919317;28;8855;-71
2022/03/10 08:27:37;;;;;;;;;30.25;28.75;;;;;5.37;52.35;100087.72;4966973;28;8965;-80
2022/03/10 08:30:07;;;;;;;;;30.75;27.75;;;;;5.37;51.60;100094.56;4935559;28;8879;-78
2022/03/10 08:32:36;;;;;;;;;36.00;32.50;;;;;5.32;52.72;100089.28;4949537;28;8983;-77
2022/03/10 08:35:05;;;;;;;;;43.25;34.25;;;;;5.14;54.28;100089.63;4926589;28;8853;-77
2022/03/10 08:37:36;;;;;;;;;35.00;33.75;;;;;5.21;53.43;100091.53;4969948;28;8950;-77
2022/03/10 08:40:05;;;;;;;;;30.75;30.75;;;;;5.22;52.17;100093.31;4961859;28;8880;-75
2022/03/10 08:42:34;;;;;;;;;35.25;33.50;;;;;4.27;51.83;100105.78;4970811;28;9062;-75
2022/03/10 08:45:02;;;;;;;;;42.25;34.50;;;;;4.22;55.51;100112.50;4988373;28;8857;-75
2022/03/10 08:47:32;;;;;;;;;37.00;33.50;;;;;4.24;52.57;100113.44;4986849;28;9043;-76
2022/03/10 08:50:01;;;;;;;;;29.75;27.00;;;;;4.40;54.78;100104.50;4968618;28;8975;-75
2022/03/10 08:52:29;;;;;;;;;32.25;29.50;;;;;4.62;53.36;100106.09;4970144;28;8895;-73
2022/03/10 08:55:00;;;;;;;;;31.25;31.00;;;;;4.61;52.56;100107.81;4971417;28;8837;-75
2022/03/10 08:57:29;;;;;;;;;35.75;32.75;;;;;4.25;53.35;100110.00;4970818;28;8869;-74
2022/03/10 08:59:57;;;;;;;;;29.75;26.25;;;;;3.93;52.85;100104.63;4987032;28;8873;-75
2022/03/10 09:02:26;;;;;;;;;31.00;27.50;;;;;4.28;53.62;100115.28;4970460;28;8891;-77
2022/03/10 09:04:55;;;;;;;;;30.50;30.50;;;;;4.58;53.38;100117.16;4967704;28;8887;-76
2022/03/10 09:07:25;;;;;;;;;36.00;33.50;;;;;4.73;53.44;100121.94;4982315;28;8857;-75
2022/03/10 09:09:54;;;;;;;;;33.00;32.00;;;;;5.07;52.73;100129.91;4986877;28;9722;-76
2022/03/10 09:12:24;;;;;;;;;43.75;36.00;;;;;5.35;50.93;100120.41;4947642;29;9045;-76
2022/03/10 09:14:53;;;;;;;;;40.75;37.75;;;;;5.58;50.86;100120.22;4950250;29;9015;-75
2022/03/10 09:17:22;;;;;;;;;38.00;34.50;;;;;5.86;50.01;100111.53;4935642;29;9615;-75
2022/03/10 09:19:50;;;;;;;;;42.50;41.00;;;;;6.06;51.07;100117.25;4946080;28;8955;-76
2022/03/10 09:22:20;;;;;;;;;41.75;36.75;;;;;6.33;50.73;100111.94;4868361;29;8891;-76
2022/03/10 09:24:50;;;;;;;;;34.25;32.75;;;;;6.50;48.90;100130.47;4929701;29;8873;-76
2022/03/10 09:27:18;;;;;;;;;37.25;33.25;;;;;6.61;48.15;100126.44;4912458;28;8963;-76
2022/03/10 09:29:48;;;;;;;;;31.00;31.00;;;;;6.79;47.58;100126.03;4915252;29;9664;-75
2022/03/10 09:32:18;;;;;;;;;34.00;32.25;;;;;6.92;47.04;100134.09;4911944;29;8988;-76
2022/03/10 09:34:46;;;;;;;;;39.75;35.75;;;;;6.95;46.89;100140.22;4928727;28;8995;-76
2022/03/10 09:37:15;;;;;;;;;26.75;25.00;;;;;7.07;47.26;100138.75;4924175;29;8864;-75
2022/03/10 09:39:43;;;;;;;;;39.25;34.25;;;;;7.05;45.80;100146.53;4927190;29;9595;-75
2022/03/10 09:42:14;;;;;;;;;34.50;32.50;;;;;7.06;46.25;100153.44;4865467;29;9015;-78
2022/03/10 09:44:47;;;;;;;;;32.00;30.25;;;;;7.07;46.08;100152.63;4942370;28;8927;-75
2022/03/10 09:47:17;;;;;;;;;29.80;28.60;;;;;7.29;45.29;100161.75;4941597;28;8961;-77
2022/03/10 09:49:46;;;;;;;;;33.75;32.75;;;;;7.35;45.74;100153.22;4950979;28;8867;-78
2022/03/10 09:52:15;;;;;;;;;25.75;25.00;;;;;7.30;45.14;100162.66;4990775;28;8873;-76
2022/03/10 09:54:43;;;;;;;;;29.25;27.00;;;;;7.42;44.03;100163.78;4990304;28;8856;-75
2022/03/10 09:57:16;;;;;;;;;33.00;30.00;;;;;7.36;45.86;100153.28;4964010;28;8871;-76
2022/03/10 09:59:49;;;;;;;;;39.25;38.25;;;;;7.12;45.55;100163.94;4989140;28;8967;-77
2022/03/10 10:02:20;;;;;;;;;36.00;32.75;;;;;7.18;45.81;100166.72;4989694;28;8909;-76
2022/03/10 10:04:49;;;;;;;;;38.25;35.75;;;;;7.29;46.89;100164.34;4977822;28;8951;-77
2022/03/10 10:07:27;;;;;;;;;41.00;36.25;;;;;5.75;46.72;100170.72;4941051;28;8853;-77
2022/03/10 10:09:57;;;;;;;;;39.75;37.25;;;;;5.50;49.63;100171.72;4972545;28;8876;-75
2022/03/10 10:12:27;;;;;;;;;39.50;36.25;;;;;5.80;48.94;100176.94;4989160;28;8857;-76
2022/03/10 10:14:57;;;;;;;;;33.50;31.75;;;;;6.10;48.16;100176.06;4987444;28;9000;-79
2022/03/10 10:17:30;;;;;;;;;41.75;38.50;;;;;6.32;47.78;100180.09;4988822;28;8853;-78
2022/03/10 10:20:18;;;;;;;;;32.00;32.00;;;;;6.49;47.60;100183.16;4967239;28;8879;-76
2022/03/10 10:22:48;;;;;;;;;35.50;30.75;;;;;6.51;47.57;100191.84;4983591;28;8929;-75
2022/03/10 10:25:21;;;;;;;;;42.75;33.75;;;;;6.60;45.73;100186.91;4971763;28;8881;-76
2022/03/10 10:27:50;;;;;;;;;39.75;32.00;;;;;6.76;45.15;100193.34;4973981;28;8864;-80
2022/03/10 10:30:18;;;;;;;;;39.50;36.75;;;;;7.05;46.58;100194.91;4991445;28;9599;-77
2022/03/10 10:32:53;;;;;;;;;41.50;39.25;;;;;7.20;45.19;100188.38;4973556;28;8884;-76
2022/03/10 10:35:22;;;;;;;;;35.75;32.75;;;;;7.18;46.02;100189.16;4989479;28;9615;-75
2022/03/10 10:37:56;;;;;;;;;37.25;35.50;;;;;7.53;45.92;100192.56;4989627;28;8868;-76
2022/03/10 10:40:27;;;;;;;;;30.50;29.25;;;;;7.49;44.89;100185.56;4972662;28;9606;-75
2022/03/10 10:42:56;;;;;;;;;36.75;34.50;;;;;7.59;43.86;100197.00;4988923;28;9023;-74
2022/03/10 10:45:31;;;;;;;;;39.50;36.75;;;;;7.35;43.88;100206.00;4940589;28;9591;-75
2022/03/10 10:48:03;;;;;;;;;34.67;32.33;;;;;7.38;44.79;100203.47;4941578;28;8857;-75
2022/03/10 10:50:33;;;;;;;;;40.75;34.50;;;;;7.49;45.19;100202.84;4989040;28;8880;-74
2022/03/10 10:53:03;;;;;;;;;34.50;33.00;;;;;7.68;44.15;100194.63;4969270;28;8875;-75
2022/03/10 10:55:33;;;;;;;;;40.75;38.00;;;;;7.66;44.24;100196.31;4997509;28;8949;-76
2022/03/10 10:58:09;;;;;;;;;41.00;36.00;;;;;7.79;43.60;100206.13;4957240;28;8900;-75
2022/03/10 11:00:43;;;;;;;;;32.25;31.00;;;;;7.65;42.66;100199.75;5007281;28;8858;-75
2022/03/10 11:03:25;;;;;;;;;33.00;30.50;;;;;7.91;42.46;100195.09;4991132;28;8866;-75
2022/03/10 11:05:55;;;;;;;;;40.25;32.75;;;;;7.77;41.74;100197.41;4990997;28;8870;-76
2022/03/10 11:08:26;;;;;;;;;44.00;41.67;;;;;7.17;42.97;100192.59;5007478;28;8866;-76
2022/03/10 11:10:55;;;;;;;;;47.25;40.75;;;;;6.75;43.84;100191.59;4959638;28;8920;-75
2022/03/10 11:13:24;;;;;;;;;40.00;35.75;;;;;6.43;45.49;100199.41;4991383;28;8870;-77
2022/03/10 11:15:54;;;;;;;;;38.00;35.75;;;;;6.83;44.59;100189.19;4996217;28;8914;-75
2022/03/10 11:18:25;;;;;;;;;38.75;35.25;;;;;6.63;43.38;100189.56;4984733;28;8851;-75
2022/03/10 11:21:08;;;;;;;;;42.25;36.25;;;;;6.06;46.07;100200.09;4991012;28;8975;-75
2022/03/10 11:23:50;;;;;;;;;38.00;34.75;;;;;6.40;45.62;100196.72;4942685;28;8873;-76
2022/03/10 11:26:25;;;;;;;;;46.25;38.75;;;;;6.75;46.12;100198.50;4975837;28;8885;-74
2022/03/10 11:28:57;;;;;;;;;35.50;34.00;;;;;6.98;45.28;100194.75;4990040;28;8850;-75
2022/03/10 11:31:27;;;;;;;;;36.75;33.75;;;;;7.10;45.00;100199.34;4989872;28;8862;-76
2022/03/10 11:33:58;;;;;;;;;37.25;36.00;;;;;7.02;45.25;100204.34;4988016;28;8844;-75
2022/03/10 11:36:28;;;;;;;;;34.00;31.25;;;;;7.23;45.67;100204.00;4989477;28;8882;-78
2022/03/10 11:38:58;;;;;;;;;56.50;48.25;;;;;7.20;46.10;100193.56;4986584;28;8947;-73
2022/03/10 11:41:27;;;;;;;;;37.00;33.25;;;;;7.29;45.27;100205.84;4987059;28;8856;-75
2022/03/10 11:43:59;;;;;;;;;62.50;50.75;;;;;7.42;45.71;100200.09;4987138;28;8978;-76
2022/03/10 11:46:29;;;;;;;;;42.25;35.00;;;;;7.60;44.92;100199.66;4969948;28;8869;-75